createdAt,value
2019-04-10T00:00:51.488Z,21.43
2019-04-10T00:01:51.438Z,21.44
2019-04-10T00:02:51.435Z,21.43
2019-04-10T00:03:51.462Z,21.46
2019-04-10T00:04:51.648Z,21.38
2019-04-10T00:05:52.135Z,21.38
2019-04-10T00:06:52.210Z,21.42
2019-04-10T00:07:51.408Z,21.46
2019-04-10T00:08:52.669Z,21.47
2019-04-10T00:09:51.686Z,21.44
2019-04-10T00:10:52.209Z,21.43
2019-04-10T00:11:51.438Z,21.37
2019-04-10T00:12:51.383Z,21.42
2019-04-10T00:13:51.366Z,21.44
2019-04-10T00:14:52.490Z,21.44
2019-04-10T00:15:51.362Z,21.34
2019-04-10T00:16:52.231Z,21.47
2019-04-10T00:17:51.501Z,21.47
2019-04-10T00:18:51.337Z,21.42
2019-04-10T00:19:51.904Z,21.46
2019-04-10T00:20:51.318Z,21.42
2019-04-10T00:21:51.322Z,21.42
2019-04-10T00:22:51.326Z,21.38
2019-04-10T00:23:51.364Z,21.46
2019-04-10T00:24:52.423Z,21.43
2019-04-10T00:25:51.300Z,21.44
2019-04-10T00:26:52.261Z,21.40
2019-04-10T00:27:51.288Z,21.42
2019-04-10T00:28:51.934Z,21.44
2019-04-10T00:29:52.327Z,21.37
2019-04-10T00:30:51.571Z,21.38
2019-04-10T00:31:51.255Z,21.44
2019-04-10T00:32:52.252Z,21.47
2019-04-10T00:33:51.461Z,21.40
2019-04-10T00:34:51.231Z,21.42
2019-04-10T00:35:51.963Z,21.32
2019-04-10T00:36:51.444Z,21.44
2019-04-10T00:37:51.326Z,21.25
2019-04-10T00:38:51.195Z,21.42
2019-04-10T00:39:51.189Z,21.40
2019-04-10T00:40:52.016Z,21.34
2019-04-10T00:41:51.172Z,21.42
2019-04-10T00:42:51.635Z,21.40
2019-04-10T00:43:51.161Z,21.37
2019-04-10T00:44:52.158Z,21.31
2019-04-10T00:45:51.463Z,21.46
2019-04-10T00:46:51.128Z,21.46
2019-04-10T00:47:51.188Z,21.42
2019-04-10T00:48:52.134Z,21.42
2019-04-10T00:49:51.108Z,21.38
2019-04-10T00:50:51.099Z,21.40
2019-04-10T00:51:52.003Z,21.34
2019-04-10T00:52:51.087Z,21.29
2019-04-10T00:53:51.713Z,21.34
2019-04-10T00:54:51.128Z,21.31
2019-04-10T00:55:52.199Z,21.40
2019-04-10T00:56:51.052Z,21.35
2019-04-10T00:57:51.905Z,21.35
2019-04-10T00:58:51.268Z,21.35
2019-04-10T00:59:51.042Z,21.35
2019-04-10T01:00:51.872Z,21.37
2019-04-10T01:01:52.070Z,21.38
2019-04-10T01:02:51.365Z,21.43
2019-04-10T01:03:51.284Z,21.44
2019-04-10T01:04:51.177Z,21.32
2019-04-10T01:05:51.290Z,21.34
2019-04-10T01:06:50.996Z,21.35
2019-04-10T01:07:51.919Z,21.38
2019-04-10T01:08:51.122Z,21.40
2019-04-10T01:09:50.986Z,21.43
2019-04-10T01:10:50.978Z,21.37
2019-04-10T01:11:51.698Z,21.31
2019-04-10T01:12:52.373Z,21.42
2019-04-10T01:13:51.725Z,21.35
2019-04-10T01:14:50.943Z,21.38
2019-04-10T01:15:51.011Z,21.38
2019-04-10T01:16:51.501Z,21.37
2019-04-10T01:17:50.921Z,21.29
2019-04-10T01:18:51.244Z,21.31
2019-04-10T01:19:52.332Z,21.35
2019-04-10T01:20:50.904Z,21.40
2019-04-10T01:21:50.911Z,21.31
2019-04-10T01:22:51.871Z,21.31
2019-04-10T01:23:51.131Z,21.34
2019-04-10T01:24:50.915Z,21.35
2019-04-10T01:25:50.919Z,21.32
2019-04-10T01:26:51.732Z,21.42
2019-04-10T01:27:51.970Z,21.29
2019-04-10T01:28:51.216Z,21.37
2019-04-10T01:29:51.565Z,21.31
2019-04-10T01:30:50.897Z,21.40
2019-04-10T01:31:51.266Z,21.29
2019-04-10T01:32:52.293Z,21.27
2019-04-10T01:33:50.881Z,21.29
2019-04-10T01:34:51.770Z,21.32
2019-04-10T01:35:50.932Z,21.35
2019-04-10T01:36:50.866Z,21.38
2019-04-10T01:37:56.216Z,21.29
2019-04-10T01:38:53.744Z,21.29
2019-04-10T01:39:50.852Z,21.37
2019-04-10T01:40:51.157Z,21.34
2019-04-10T01:41:50.836Z,21.31
2019-04-10T01:43:02.289Z,21.29
2019-04-10T01:43:52.836Z,21.32
2019-04-10T01:44:51.186Z,21.29
2019-04-10T01:45:51.551Z,21.28
2019-04-10T01:46:50.841Z,21.31
2019-04-10T01:47:51.192Z,21.31
2019-04-10T01:48:51.284Z,21.29
2019-04-10T01:49:50.769Z,21.27
2019-04-10T01:50:50.846Z,21.27
2019-04-10T01:51:51.809Z,21.31
2019-04-10T01:52:50.762Z,21.38
2019-04-10T01:53:50.736Z,21.29
2019-04-10T01:54:51.332Z,21.27
2019-04-10T01:55:51.383Z,21.35
2019-04-10T01:56:50.758Z,21.35
2019-04-10T01:57:50.736Z,21.25
2019-04-10T01:58:51.669Z,21.32
2019-04-10T01:59:50.735Z,21.29
2019-04-10T02:00:50.738Z,21.31
2019-04-10T02:01:50.714Z,21.25
2019-04-10T02:02:51.544Z,21.29
2019-04-10T02:03:50.712Z,21.24
2019-04-10T02:04:52.212Z,21.31
2019-04-10T02:05:52.621Z,21.24
2019-04-10T02:06:51.637Z,21.32
2019-04-10T02:08:02.119Z,21.24
2019-04-10T02:08:52.721Z,21.31
2019-04-10T02:09:51.801Z,21.25
2019-04-10T02:10:50.696Z,21.28
2019-04-10T02:11:50.677Z,21.25
2019-04-10T02:12:50.874Z,21.29
2019-04-10T02:13:51.749Z,21.21
2019-04-10T02:14:50.661Z,21.17
2019-04-10T02:15:50.644Z,21.31
2019-04-10T02:16:51.524Z,21.24
2019-04-10T02:17:50.863Z,21.38
2019-04-10T02:18:50.621Z,21.29
2019-04-10T02:19:50.650Z,21.31
2019-04-10T02:20:51.507Z,21.35
2019-04-10T02:21:50.599Z,21.25
2019-04-10T02:22:50.588Z,21.28
2019-04-10T02:23:50.593Z,21.24
2019-04-10T02:24:51.466Z,21.28
2019-04-10T02:25:50.568Z,21.34
2019-04-10T02:26:50.573Z,21.27
2019-04-10T02:27:50.926Z,21.31
2019-04-10T02:28:51.377Z,21.32
2019-04-10T02:29:50.548Z,21.24
2019-04-10T02:30:50.884Z,21.34
2019-04-10T02:31:51.156Z,21.27
2019-04-10T02:32:52.921Z,21.29
2019-04-10T02:33:51.809Z,21.28
2019-04-10T02:34:52.998Z,21.27
2019-04-10T02:35:50.509Z,21.27
2019-04-10T02:36:50.789Z,21.28
2019-04-10T02:37:55.290Z,21.25
2019-04-10T02:39:03.326Z,21.29
2019-04-10T02:39:56.304Z,21.21
2019-04-10T02:40:52.964Z,21.31
2019-04-10T02:41:52.136Z,21.27
2019-04-10T02:42:51.363Z,21.28
2019-04-10T02:43:51.418Z,21.31
2019-04-10T02:44:51.799Z,21.28
2019-04-10T02:45:51.205Z,21.24
2019-04-10T02:46:51.874Z,21.21
2019-04-10T02:47:51.001Z,21.24
2019-04-10T02:48:52.002Z,21.21
2019-04-10T02:49:52.209Z,21.32
2019-04-10T02:50:51.330Z,21.19
2019-04-10T02:51:51.778Z,21.27
2019-04-10T02:52:50.961Z,21.27
2019-04-10T02:53:53.000Z,21.25
2019-04-10T02:54:51.417Z,21.21
2019-04-10T02:55:51.558Z,21.27
2019-04-10T02:56:50.408Z,21.22
2019-04-10T02:57:51.751Z,21.24
2019-04-10T02:58:51.592Z,21.24
2019-04-10T02:59:51.238Z,21.31
2019-04-10T03:00:52.526Z,21.27
2019-04-10T03:01:51.858Z,21.22
2019-04-10T03:02:52.016Z,21.25
2019-04-10T03:03:52.579Z,21.29
2019-04-10T03:04:53.185Z,21.21
2019-04-10T03:05:51.017Z,21.24
2019-04-10T03:06:51.646Z,21.27
2019-04-10T03:07:52.627Z,21.28
2019-04-10T03:09:02.128Z,21.29
2019-04-10T03:10:01.929Z,21.29
2019-04-10T03:10:58.975Z,21.27
2019-04-10T03:11:52.347Z,21.28
2019-04-10T03:12:50.333Z,21.22
2019-04-10T03:13:51.234Z,21.25
2019-04-10T03:14:52.043Z,21.25
2019-04-10T03:15:51.705Z,21.29
2019-04-10T03:16:51.353Z,21.21
2019-04-10T03:17:50.486Z,21.22
2019-04-10T03:18:50.303Z,21.17
2019-04-10T03:19:50.285Z,21.24
2019-04-10T03:20:50.946Z,21.29
2019-04-10T03:21:51.283Z,21.27
2019-04-10T03:22:51.287Z,21.19
2019-04-10T03:23:50.295Z,21.24
2019-04-10T03:24:50.679Z,21.21
2019-04-10T03:25:50.947Z,21.29
2019-04-10T03:26:50.234Z,21.21
2019-04-10T03:27:50.449Z,21.24
2019-04-10T03:28:51.398Z,21.25
2019-04-10T03:29:50.211Z,21.25
2019-04-10T03:30:50.200Z,21.22
2019-04-10T03:31:52.259Z,21.27
2019-04-10T03:32:55.856Z,21.28
2019-04-10T03:33:54.085Z,21.25
2019-04-10T03:34:52.939Z,21.28
2019-04-10T03:35:51.312Z,21.24
2019-04-10T03:36:50.154Z,21.16
2019-04-10T03:37:50.798Z,21.25
2019-04-10T03:38:58.545Z,21.22
2019-04-10T03:39:53.180Z,21.24
2019-04-10T03:40:50.125Z,21.29
2019-04-10T03:41:50.551Z,21.19
2019-04-10T03:42:50.107Z,21.28
2019-04-10T03:43:50.159Z,21.25
2019-04-10T03:44:50.092Z,21.28
2019-04-10T03:45:50.092Z,21.28
2019-04-10T03:46:50.998Z,21.25
2019-04-10T03:47:50.072Z,21.24
2019-04-10T03:48:50.062Z,21.28
2019-04-10T03:49:50.048Z,21.16
2019-04-10T03:50:50.241Z,21.24
2019-04-10T03:51:51.051Z,21.19
2019-04-10T03:52:50.046Z,21.31
2019-04-10T03:53:50.803Z,21.32
2019-04-10T03:54:50.031Z,21.24
2019-04-10T03:55:51.112Z,21.25
2019-04-10T03:56:50.094Z,21.27
2019-04-10T03:57:51.851Z,21.29
2019-04-10T03:58:50.033Z,21.21
2019-04-10T03:59:50.013Z,21.29
2019-04-10T04:00:50.635Z,21.28
2019-04-10T04:01:51.367Z,21.25
2019-04-10T04:02:49.988Z,21.37
2019-04-10T04:03:51.092Z,21.19
2019-04-10T04:04:50.110Z,21.24
2019-04-10T04:05:50.976Z,21.31
2019-04-10T04:06:50.223Z,21.24
2019-04-10T04:07:50.685Z,21.24
2019-04-10T04:09:01.694Z,21.34
2019-04-10T04:09:51.935Z,21.28
2019-04-10T04:10:51.123Z,21.32
2019-04-10T04:11:50.304Z,21.17
2019-04-10T04:12:50.760Z,21.19
2019-04-10T04:13:50.093Z,21.31
2019-04-10T04:14:49.895Z,21.22
2019-04-10T04:15:50.587Z,21.24
2019-04-10T04:16:49.881Z,21.28
2019-04-10T04:17:50.627Z,21.27
2019-04-10T04:18:49.859Z,21.27
2019-04-10T04:19:50.452Z,21.17
2019-04-10T04:20:50.904Z,21.19
2019-04-10T04:21:50.233Z,21.28
2019-04-10T04:22:49.837Z,21.27
2019-04-10T04:23:49.848Z,21.28
2019-04-10T04:24:50.317Z,21.24
2019-04-10T04:25:50.394Z,21.25
2019-04-10T04:26:50.821Z,21.32
2019-04-10T04:27:49.812Z,21.22
2019-04-10T04:28:49.801Z,21.24
2019-04-10T04:29:49.908Z,21.25
2019-04-10T04:30:51.914Z,21.22
2019-04-10T04:31:50.772Z,21.35
2019-04-10T04:32:50.509Z,21.19
2019-04-10T04:33:49.766Z,21.25
2019-04-10T04:34:49.829Z,21.16
2019-04-10T04:35:50.697Z,21.25
2019-04-10T04:36:49.741Z,21.22
2019-04-10T04:37:50.600Z,21.28
2019-04-10T04:38:49.726Z,21.22
2019-04-10T04:39:49.933Z,21.27
2019-04-10T04:40:51.289Z,21.25
2019-04-10T04:41:50.095Z,21.25
2019-04-10T04:42:49.702Z,21.22
2019-04-10T04:43:50.179Z,21.27
2019-04-10T04:44:49.684Z,21.21
2019-04-10T04:45:50.680Z,21.24
2019-04-10T04:46:50.575Z,21.28
2019-04-10T04:47:50.309Z,21.27
2019-04-10T04:48:50.115Z,21.25
2019-04-10T04:49:50.267Z,21.22
2019-04-10T04:50:50.024Z,21.12
2019-04-10T04:51:50.562Z,21.21
2019-04-10T04:52:49.645Z,21.24
2019-04-10T04:53:50.512Z,21.28
2019-04-10T04:54:49.871Z,21.21
2019-04-10T04:55:49.641Z,21.16
2019-04-10T04:56:50.475Z,21.24
2019-04-10T04:57:49.639Z,21.21
2019-04-10T04:58:49.725Z,21.24
2019-04-10T04:59:50.484Z,21.29
2019-04-10T05:00:50.839Z,21.25
2019-04-10T05:01:49.605Z,21.27
2019-04-10T05:02:49.585Z,21.19
2019-04-10T05:03:50.533Z,21.16
2019-04-10T05:04:49.575Z,21.21
2019-04-10T05:05:49.976Z,21.27
2019-04-10T05:06:50.095Z,21.24
2019-04-10T05:07:59.238Z,21.14
2019-04-10T05:08:52.492Z,21.29
2019-04-10T05:09:50.433Z,21.21
2019-04-10T05:10:49.723Z,21.12
2019-04-10T05:11:49.534Z,21.24
2019-04-10T05:12:49.608Z,21.13
2019-04-10T05:13:49.523Z,21.22
2019-04-10T05:14:49.513Z,21.16
2019-04-10T05:15:49.508Z,21.19
2019-04-10T05:16:49.932Z,21.13
2019-04-10T05:17:49.495Z,21.25
2019-04-10T05:18:50.135Z,21.21
2019-04-10T05:19:50.331Z,21.17
2019-04-10T05:20:50.885Z,21.19
2019-04-10T05:21:50.499Z,21.13
2019-04-10T05:22:51.987Z,21.19
2019-04-10T05:23:49.472Z,21.13
2019-04-10T05:24:49.457Z,21.22
2019-04-10T05:25:49.800Z,21.16
2019-04-10T05:26:49.443Z,21.22
2019-04-10T05:27:49.430Z,21.13
2019-04-10T05:28:49.428Z,21.13
2019-04-10T05:29:50.499Z,21.24
2019-04-10T05:30:50.505Z,21.16
2019-04-10T05:31:49.405Z,21.16
2019-04-10T05:32:49.432Z,21.10
2019-04-10T05:33:49.387Z,21.16
2019-04-10T05:34:50.312Z,21.12
2019-04-10T05:35:49.368Z,21.25
2019-04-10T05:36:49.362Z,21.28
2019-04-10T05:37:49.365Z,21.19
2019-04-10T05:38:50.998Z,21.25
2019-04-10T05:39:51.958Z,21.24
2019-04-10T05:40:50.684Z,21.21
2019-04-10T05:41:50.279Z,21.24
2019-04-10T05:42:49.315Z,21.16
2019-04-10T05:43:49.306Z,21.22
2019-04-10T05:44:50.152Z,21.16
2019-04-10T05:45:49.289Z,21.25
2019-04-10T05:46:49.290Z,21.24
2019-04-10T05:47:49.276Z,21.13
2019-04-10T05:48:50.481Z,21.19
2019-04-10T05:49:49.267Z,21.27
2019-04-10T05:50:57.707Z,21.10
2019-04-10T05:51:51.245Z,21.19
2019-04-10T05:52:49.248Z,21.28
2019-04-10T05:53:51.354Z,21.24
2019-04-10T05:54:51.504Z,21.22
2019-04-10T05:55:49.419Z,21.14
2019-04-10T05:56:50.352Z,21.19
2019-04-10T05:57:49.218Z,21.28
2019-04-10T05:58:49.207Z,21.28
2019-04-10T05:59:49.196Z,21.27
2019-04-10T06:00:49.812Z,21.16
2019-04-10T06:01:50.555Z,21.27
2019-04-10T06:02:50.190Z,21.24
2019-04-10T06:03:49.226Z,21.24
2019-04-10T06:04:49.646Z,21.19
2019-04-10T06:05:49.167Z,21.25
2019-04-10T06:06:49.144Z,21.24
2019-04-10T06:07:49.534Z,21.27
2019-04-10T06:08:49.164Z,21.29
2019-04-10T06:09:55.847Z,21.22
2019-04-10T06:10:51.925Z,21.28
2019-04-10T06:11:49.125Z,21.24
2019-04-10T06:12:49.118Z,21.25
2019-04-10T06:13:49.107Z,21.24
2019-04-10T06:14:49.108Z,21.28
2019-04-10T06:15:49.094Z,21.17
2019-04-10T06:16:49.094Z,21.29
2019-04-10T06:17:49.084Z,21.16
2019-04-10T06:18:49.337Z,21.25
2019-04-10T06:19:49.102Z,21.31
2019-04-10T06:20:49.367Z,21.27
2019-04-10T06:21:49.057Z,21.22
2019-04-10T06:22:49.037Z,21.25
2019-04-10T06:23:49.832Z,21.28
2019-04-10T06:24:49.021Z,21.24
2019-04-10T06:25:49.903Z,21.22
2019-04-10T06:26:50.102Z,21.21
2019-04-10T06:27:49.018Z,21.25
2019-04-10T06:28:49.005Z,21.19
2019-04-10T06:29:48.998Z,21.24
2019-04-10T06:30:50.149Z,21.24
2019-04-10T06:31:49.350Z,21.19
2019-04-10T06:32:48.982Z,21.22
2019-04-10T06:33:48.981Z,21.13
2019-04-10T06:34:50.112Z,21.24
2019-04-10T06:35:49.031Z,21.29
2019-04-10T06:36:49.974Z,21.28
2019-04-10T06:37:50.372Z,21.32
2019-04-10T06:38:48.966Z,21.22
2019-04-10T06:39:49.119Z,21.28
2019-04-10T06:40:50.324Z,21.22
2019-04-10T06:41:48.953Z,21.29
2019-04-10T06:42:52.285Z,21.25
2019-04-10T06:43:49.926Z,21.25
2019-04-10T06:44:48.916Z,21.31
2019-04-10T06:45:48.908Z,21.32
2019-04-10T06:46:48.911Z,21.21
2019-04-10T06:47:48.895Z,21.21
2019-04-10T06:48:49.812Z,21.22
2019-04-10T06:49:48.881Z,21.24
2019-04-10T06:50:48.868Z,21.25
2019-04-10T06:51:49.422Z,21.31
2019-04-10T06:52:49.261Z,21.25
2019-04-10T06:53:59.921Z,21.28
2019-04-10T06:54:51.128Z,21.24
2019-04-10T06:55:48.948Z,21.25
2019-04-10T06:56:48.895Z,21.25
2019-04-10T06:57:55.005Z,21.28
2019-04-10T06:58:51.910Z,21.24
2019-04-10T06:59:48.846Z,21.28
2019-04-10T07:00:52.950Z,21.29
2019-04-10T07:01:53.343Z,21.31
2019-04-10T07:02:50.825Z,21.34
2019-04-10T07:03:58.514Z,21.21
2019-04-10T07:04:55.674Z,21.24
2019-04-10T07:06:03.853Z,21.31
2019-04-10T07:07:00.063Z,21.28
2019-04-10T07:07:57.417Z,21.25
2019-04-10T07:08:53.399Z,21.27
2019-04-10T07:09:54.466Z,21.22
2019-04-10T07:10:55.384Z,21.31
2019-04-10T07:11:55.526Z,21.24
2019-04-10T07:12:53.244Z,21.21
2019-04-10T07:13:49.338Z,21.21
2019-04-10T07:14:51.495Z,21.31
2019-04-10T07:15:54.400Z,21.27
2019-04-10T07:16:50.712Z,21.17
2019-04-10T07:17:49.250Z,21.22
2019-04-10T07:18:49.453Z,21.19
2019-04-10T07:19:49.720Z,21.28
2019-04-10T07:20:48.996Z,21.34
2019-04-10T07:21:49.703Z,21.28
2019-04-10T07:22:49.725Z,21.17
2019-04-10T07:23:49.047Z,21.25
2019-04-10T07:24:51.388Z,21.17
2019-04-10T07:25:48.684Z,21.24
2019-04-10T07:26:49.754Z,21.14
2019-04-10T07:27:49.686Z,21.25
2019-04-10T07:28:49.357Z,21.19
2019-04-10T07:29:51.567Z,21.21
2019-04-10T07:30:50.662Z,21.34
2019-04-10T07:31:48.869Z,21.29
2019-04-10T07:32:49.150Z,21.24
2019-04-10T07:33:50.785Z,21.22
2019-04-10T07:34:50.781Z,21.25
2019-04-10T07:35:49.867Z,21.28
2019-04-10T07:36:49.553Z,21.31
2019-04-10T07:37:54.316Z,21.29
2019-04-10T07:38:53.912Z,21.27
2019-04-10T07:39:49.611Z,21.32
2019-04-10T07:40:49.096Z,21.22
2019-04-10T07:41:49.329Z,21.28
2019-04-10T07:42:48.725Z,21.19
2019-04-10T07:43:53.899Z,21.29
2019-04-10T07:44:50.565Z,21.19
2019-04-10T07:45:48.556Z,21.31
2019-04-10T07:46:48.849Z,21.32
2019-04-10T07:47:49.537Z,21.24
2019-04-10T07:48:48.527Z,21.25
2019-04-10T07:49:48.534Z,21.34
2019-04-10T07:50:48.620Z,21.16
2019-04-10T07:51:49.163Z,21.27
2019-04-10T07:52:50.037Z,21.24
2019-04-10T07:53:49.173Z,21.34
2019-04-10T07:54:48.508Z,21.29
2019-04-10T07:55:59.939Z,21.25
2019-04-10T07:56:51.329Z,21.24
2019-04-10T07:57:50.013Z,21.27
2019-04-10T07:58:49.489Z,21.21
2019-04-10T07:59:49.490Z,21.24
2019-04-10T08:00:49.739Z,21.29
2019-04-10T08:01:49.424Z,21.28
2019-04-10T08:02:49.150Z,21.25
2019-04-10T08:03:51.302Z,21.25
2019-04-10T08:04:48.443Z,21.19
2019-04-10T08:05:48.435Z,21.25
2019-04-10T08:06:48.527Z,21.22
2019-04-10T08:07:48.499Z,21.27
2019-04-10T08:08:49.196Z,21.27
2019-04-10T08:09:49.735Z,21.27
2019-04-10T08:10:48.786Z,21.29
2019-04-10T08:11:48.903Z,21.28
2019-04-10T08:12:52.167Z,21.27
2019-04-10T08:13:51.192Z,21.35
2019-04-10T08:14:48.541Z,21.29
2019-04-10T08:15:48.377Z,21.28
2019-04-10T08:16:48.470Z,21.40
2019-04-10T08:17:50.886Z,21.31
2019-04-10T08:18:49.846Z,21.37
2019-04-10T08:19:48.838Z,21.32
2019-04-10T08:20:48.883Z,21.38
2019-04-10T08:21:49.149Z,21.29
2019-04-10T08:22:48.317Z,21.44
2019-04-10T08:23:48.584Z,21.49
2019-04-10T08:24:49.165Z,21.47
2019-04-10T08:25:49.490Z,21.42
2019-04-10T08:26:49.270Z,21.37
2019-04-10T08:27:48.591Z,21.42
2019-04-10T08:28:49.598Z,21.42
2019-04-10T08:29:48.492Z,21.46
2019-04-10T08:30:50.399Z,21.42
2019-04-10T08:31:48.377Z,21.42
2019-04-10T08:32:57.131Z,21.49
2019-04-10T08:33:50.468Z,21.53
2019-04-10T08:34:48.801Z,21.49
2019-04-10T08:35:48.247Z,21.52
2019-04-10T08:36:48.257Z,21.53
2019-04-10T08:37:48.728Z,21.61
2019-04-10T08:38:48.955Z,21.50
2019-04-10T08:39:49.846Z,21.53
2019-04-10T08:40:48.279Z,21.59
2019-04-10T08:41:48.205Z,21.56
2019-04-10T08:42:49.163Z,21.62
2019-04-10T08:43:48.258Z,21.58
2019-04-10T08:44:48.737Z,21.59
2019-04-10T08:45:51.579Z,21.64
2019-04-10T08:46:50.337Z,21.68
2019-04-10T08:47:48.679Z,21.64
2019-04-10T08:48:48.151Z,21.71
2019-04-10T08:49:48.139Z,21.69
2019-04-10T08:50:48.218Z,21.69
2019-04-10T08:51:48.116Z,21.67
2019-04-10T08:52:48.701Z,21.71
2019-04-10T08:53:48.856Z,21.86
2019-04-10T08:54:49.048Z,21.83
2019-04-10T08:55:48.471Z,21.90
2019-04-10T08:56:49.130Z,21.82
2019-04-10T08:57:48.150Z,21.86
2019-04-10T08:58:49.763Z,21.88
2019-04-10T08:59:48.417Z,22.00
2019-04-10T09:00:50.957Z,22.02
2019-04-10T09:01:48.044Z,21.96
2019-04-10T09:02:48.618Z,21.98
2019-04-10T09:03:48.909Z,21.98
2019-04-10T09:04:48.981Z,21.98
2019-04-10T09:05:49.047Z,21.96
2019-04-10T09:06:48.006Z,22.00
2019-04-10T09:07:48.526Z,22.03
2019-04-10T09:08:48.934Z,22.07
2019-04-10T09:09:48.033Z,22.07
2019-04-10T09:10:48.966Z,22.02
2019-04-10T09:11:47.984Z,22.09
2019-04-10T09:12:47.990Z,22.09
2019-04-10T09:13:48.585Z,22.06
2019-04-10T09:14:47.975Z,22.07
2019-04-10T09:15:47.987Z,22.18
2019-04-10T09:16:48.919Z,22.15
2019-04-10T09:17:47.952Z,22.20
2019-04-10T09:18:47.931Z,22.28
2019-04-10T09:19:47.930Z,22.27
2019-04-10T09:20:48.833Z,22.24
2019-04-10T09:21:48.028Z,22.31
2019-04-10T09:23:10.397Z,22.31
2019-04-10T09:23:52.867Z,22.31
2019-04-10T09:24:50.777Z,22.36
2019-04-10T09:25:49.187Z,22.40
2019-04-10T09:26:48.659Z,22.36
2019-04-10T09:27:47.862Z,22.42
2019-04-10T09:28:48.616Z,22.45
2019-04-10T09:29:48.581Z,22.47
2019-04-10T09:30:49.001Z,22.49
2019-04-10T09:31:48.167Z,22.45
2019-04-10T09:32:47.818Z,22.46
2019-04-10T09:33:47.811Z,22.49
2019-04-10T09:34:48.174Z,22.43
2019-04-10T09:35:48.889Z,22.49
2019-04-10T09:36:47.796Z,22.55
2019-04-10T09:37:48.363Z,22.46
2019-04-10T09:38:47.866Z,22.49
2019-04-10T09:39:50.616Z,22.40
2019-04-10T09:40:48.843Z,22.42
2019-04-10T09:41:47.781Z,22.45
2019-04-10T09:42:48.020Z,22.42
2019-04-10T09:43:47.766Z,22.49
2019-04-10T09:44:48.523Z,22.49
2019-04-10T09:45:48.047Z,22.57
2019-04-10T09:46:49.553Z,22.54
2019-04-10T09:47:48.055Z,22.57
2019-04-10T09:48:49.792Z,22.62
2019-04-10T09:49:47.712Z,22.62
2019-04-10T09:50:48.155Z,22.72
2019-04-10T09:51:48.165Z,22.73
2019-04-10T09:52:48.692Z,22.83
2019-04-10T09:53:48.808Z,23.02
2019-04-10T09:54:48.841Z,23.39
2019-04-10T09:55:47.662Z,23.79
2019-04-10T09:56:47.751Z,24.12
2019-04-10T09:57:47.729Z,24.42
2019-04-10T09:58:47.635Z,24.52
2019-04-10T09:59:48.855Z,24.68
2019-04-10T10:00:48.217Z,24.95
2019-04-10T10:01:48.557Z,24.99
2019-04-10T10:02:47.630Z,25.14
2019-04-10T10:03:48.698Z,25.15
2019-04-10T10:04:48.076Z,25.35
2019-04-10T10:05:47.736Z,25.32
2019-04-10T10:06:47.590Z,25.38
2019-04-10T10:07:48.566Z,25.43
2019-04-10T10:08:48.009Z,25.51
2019-04-10T10:09:47.579Z,25.45
2019-04-10T10:10:47.558Z,25.50
2019-04-10T10:11:47.550Z,25.33
2019-04-10T10:12:48.468Z,25.35
2019-04-10T10:13:48.255Z,25.33
2019-04-10T10:14:48.376Z,25.18
2019-04-10T10:15:47.520Z,25.10
2019-04-10T10:16:48.419Z,25.08
2019-04-10T10:17:48.705Z,24.95
2019-04-10T10:18:47.762Z,24.85
2019-04-10T10:19:48.128Z,24.77
2019-04-10T10:20:48.167Z,24.71
2019-04-10T10:21:48.324Z,24.77
2019-04-10T10:22:47.548Z,24.67
2019-04-10T10:23:47.472Z,24.64
2019-04-10T10:24:47.475Z,24.46
2019-04-10T10:25:47.801Z,24.50
2019-04-10T10:26:47.446Z,24.42
2019-04-10T10:27:47.437Z,24.31
2019-04-10T10:28:47.435Z,24.37
2019-04-10T10:29:48.084Z,24.24
2019-04-10T10:30:47.428Z,24.20
2019-04-10T10:31:50.843Z,24.08
2019-04-10T10:32:48.906Z,24.03
2019-04-10T10:33:48.126Z,23.90
2019-04-10T10:34:47.396Z,23.90
2019-04-10T10:35:47.518Z,23.87
2019-04-10T10:36:49.209Z,23.83
2019-04-10T10:37:48.493Z,23.72
2019-04-10T10:38:47.521Z,23.72
2019-04-10T10:39:47.348Z,23.63
2019-04-10T10:40:47.354Z,23.63
2019-04-10T10:41:47.339Z,23.58
2019-04-10T10:42:47.700Z,23.53
2019-04-10T10:43:47.315Z,23.55
2019-04-10T10:44:48.075Z,23.57
2019-04-10T10:45:47.320Z,23.51
2019-04-10T10:46:47.496Z,23.48
2019-04-10T10:47:48.480Z,23.40
2019-04-10T10:48:48.250Z,23.43
2019-04-10T10:49:47.271Z,23.32
2019-04-10T10:50:47.745Z,23.43
2019-04-10T10:51:47.266Z,23.48
2019-04-10T10:52:47.959Z,23.35
2019-04-10T10:53:48.218Z,23.42
2019-04-10T10:54:47.317Z,23.36
2019-04-10T10:55:47.602Z,23.47
2019-04-10T10:56:47.239Z,23.39
2019-04-10T10:57:47.215Z,23.32
2019-04-10T10:58:48.135Z,23.43
2019-04-10T10:59:47.187Z,23.32
2019-04-10T11:00:47.493Z,23.35
2019-04-10T11:01:48.543Z,23.40
2019-04-10T11:02:47.183Z,23.35
2019-04-10T11:03:47.320Z,23.39
2019-04-10T11:04:47.521Z,23.43
2019-04-10T11:05:47.158Z,23.38
2019-04-10T11:06:54.383Z,23.38
2019-04-10T11:07:49.365Z,23.40
2019-04-10T11:08:47.784Z,23.38
2019-04-10T11:09:48.449Z,23.48
2019-04-10T11:10:50.724Z,23.32
2019-04-10T11:11:49.458Z,23.43
2019-04-10T11:12:48.124Z,23.39
2019-04-10T11:13:47.114Z,23.33
2019-04-10T11:14:48.170Z,23.36
2019-04-10T11:15:48.477Z,23.33
2019-04-10T11:16:47.113Z,23.25
2019-04-10T11:17:47.297Z,23.20
2019-04-10T11:18:47.070Z,23.16
2019-04-10T11:19:48.667Z,23.27
2019-04-10T11:20:48.351Z,23.17
2019-04-10T11:21:47.153Z,23.20
2019-04-10T11:22:49.511Z,23.13
2019-04-10T11:23:47.063Z,23.13
2019-04-10T11:24:47.204Z,23.19
2019-04-10T11:25:48.057Z,23.07
2019-04-10T11:26:47.021Z,23.10
2019-04-10T11:27:47.543Z,23.13
2019-04-10T11:28:47.925Z,23.12
2019-04-10T11:29:47.010Z,23.10
2019-04-10T11:30:47.450Z,23.10
2019-04-10T11:31:48.956Z,23.15
2019-04-10T11:32:48.423Z,23.09
2019-04-10T11:33:50.246Z,23.09
2019-04-10T11:34:49.378Z,23.04
2019-04-10T11:35:47.633Z,23.00
2019-04-10T11:36:50.953Z,23.10
2019-04-10T11:37:51.354Z,23.05
2019-04-10T11:38:49.358Z,23.09
2019-04-10T11:39:48.128Z,23.16
2019-04-10T11:40:49.556Z,23.15
2019-04-10T11:41:49.941Z,23.12
2019-04-10T11:42:47.914Z,23.01
2019-04-10T11:43:48.036Z,23.04
2019-04-10T11:44:48.620Z,23.10
2019-04-10T11:46:49.424Z,22.98
2019-04-10T11:47:47.561Z,23.01
2019-04-10T11:48:49.297Z,23.05
2019-04-10T11:49:48.928Z,23.04
2019-04-10T11:50:46.858Z,22.88
2019-04-10T11:51:49.883Z,23.00
2019-04-10T11:52:52.502Z,23.07
2019-04-10T11:54:49.258Z,23.05
2019-04-10T11:55:51.079Z,23.07
2019-04-10T11:56:50.968Z,23.09
2019-04-10T11:57:49.717Z,23.09
2019-04-10T11:58:54.016Z,23.09
2019-04-10T11:59:49.088Z,23.04
2019-04-10T12:00:52.514Z,23.15
2019-04-10T12:01:50.688Z,23.04
2019-04-10T12:02:51.996Z,23.16
2019-04-10T12:03:51.482Z,23.12
2019-04-10T12:04:54.185Z,23.20
2019-04-10T12:05:51.142Z,23.01
2019-04-10T12:06:50.322Z,23.02
2019-04-10T12:08:08.947Z,22.97
2019-04-10T12:09:13.661Z,22.98
2019-04-10T12:11:48.998Z,23.10
2019-04-10T12:12:46.708Z,22.98
2019-04-10T12:13:46.712Z,23.09
2019-04-10T12:14:47.831Z,23.09
2019-04-10T12:15:46.696Z,23.04
2019-04-10T12:16:47.410Z,23.09
2019-04-10T12:17:46.686Z,22.97
2019-04-10T12:18:46.847Z,23.22
2019-04-10T12:19:46.727Z,23.04
2019-04-10T12:20:46.666Z,23.04
2019-04-10T12:21:47.635Z,23.12
2019-04-10T12:22:46.648Z,23.13
2019-04-10T12:23:47.370Z,23.13
2019-04-10T12:24:49.702Z,23.10
2019-04-10T12:25:47.618Z,23.02
2019-04-10T12:26:47.767Z,23.05
2019-04-10T12:27:47.415Z,23.13
2019-04-10T12:28:46.624Z,23.12
2019-04-10T12:29:46.758Z,23.01
2019-04-10T12:30:47.723Z,22.98
2019-04-10T12:31:46.592Z,22.92
2019-04-10T12:32:47.497Z,22.97
2019-04-10T12:33:46.650Z,23.02
2019-04-10T12:34:48.634Z,22.98
2019-04-10T12:35:47.731Z,22.95
2019-04-10T12:36:46.841Z,23.00
2019-04-10T12:37:57.275Z,22.98
2019-04-10T12:38:47.769Z,22.90
2019-04-10T12:39:47.528Z,22.91
2019-04-10T12:40:46.763Z,22.91
2019-04-10T12:41:47.841Z,22.95
2019-04-10T12:42:46.532Z,22.92
2019-04-10T12:43:47.344Z,22.88
2019-04-10T12:44:47.168Z,22.83
2019-04-10T12:45:46.600Z,22.85
2019-04-10T12:46:46.480Z,22.83
2019-04-10T12:47:46.469Z,22.80
2019-04-10T12:48:47.218Z,22.80
2019-04-10T12:49:46.519Z,22.83
2019-04-10T12:50:47.463Z,22.83
2019-04-10T12:51:46.434Z,22.77
2019-04-10T12:52:47.784Z,22.92
2019-04-10T12:53:47.690Z,22.90
2019-04-10T12:54:47.023Z,22.80
2019-04-10T12:55:46.415Z,22.77
2019-04-10T12:56:46.437Z,22.79